Time;durP1;ratioP1;P1;durP2;ratioP2;P2;SDS_P1;SDS_P2;PMS_P1;PMS_P2;Temp;Humidity;BMP_temperature;BMP_pressure;BME280_temperature;BME280_humidity;BME280_pressure;Samples;Min_cycle;Max_cycle;Signal;HPM_P1;HPM_P2
2021/11/28 00:02:13;;;;;;;0.70;0.40;;;19.20;53.70;;;;;;6215201;23;19997;-68
2021/11/28 00:04:39;;;;;;;1.45;0.50;;;19.30;53.80;;;;;;6164549;23;20001;-68
2021/11/28 00:07:08;;;;;;;0.82;0.35;;;19.20;53.80;;;;;;6187980;23;20011;-68
2021/11/28 00:14:43;;;;;;;1.30;0.60;;;19.20;53.80;;;;;;6192145;23;20008;-68
2021/11/28 00:17:12;;;;;;;0.70;0.50;;;19.20;53.80;;;;;;6215008;23;20436;-68
2021/11/28 00:19:38;;;;;;;0.70;0.40;;;19.20;53.80;;;;;;6188271;23;20001;-68
2021/11/28 00:22:04;;;;;;;0.73;0.50;;;19.20;53.80;;;;;;6214538;23;20023;-68
2021/11/28 00:24:29;;;;;;;0.52;0.50;;;19.20;53.90;;;;;;6214576;23;20050;-68
2021/11/28 00:26:55;;;;;;;0.55;0.40;;;19.20;53.90;;;;;;6214678;23;20012;-68
2021/11/28 00:29:21;;;;;;;0.45;0.25;;;19.20;53.90;;;;;;6188634;23;20001;-68
2021/11/28 00:31:46;;;;;;;0.50;0.40;;;19.20;53.90;;;;;;6215150;23;20332;-68
2021/11/28 00:34:12;;;;;;;0.70;0.43;;;19.20;53.90;;;;;;6188256;23;19997;-68
2021/11/28 00:36:38;;;;;;;0.63;0.40;;;19.20;53.90;;;;;;6188387;23;20001;-68
2021/11/28 00:39:03;;;;;;;0.55;0.30;;;19.20;53.90;;;;;;6214531;23;20011;-68
2021/11/28 00:41:29;;;;;;;0.70;0.50;;;19.20;54.00;;;;;;6188444;23;20079;-67
2021/11/28 00:43:54;;;;;;;0.40;0.32;;;19.20;54.00;;;;;;6188662;23;20070;-68
2021/11/28 00:46:20;;;;;;;0.30;0.30;;;19.20;54.00;;;;;;6188621;23;19997;-68
2021/11/28 00:48:46;;;;;;;1.27;0.50;;;19.20;54.00;;;;;;6188130;23;20004;-68
2021/11/28 00:53:44;;;;;;;0.50;0.20;;;19.20;54.00;;;;;;6190224;23;20011;-68
2021/11/28 00:56:09;;;;;;;0.73;0.32;;;19.10;53.90;;;;;;6188472;23;20031;-68
2021/11/28 00:58:35;;;;;;;0.65;0.50;;;19.10;54.00;;;;;;6215349;23;20004;-68
2021/11/28 01:01:00;;;;;;;0.30;0.30;;;19.20;54.10;;;;;;6214471;23;20099;-68
2021/11/28 01:03:26;;;;;;;0.22;0.20;;;19.20;54.00;;;;;;6187977;23;20050;-68
2021/11/28 01:05:53;;;;;;;0.57;0.45;;;19.20;54.00;;;;;;6188348;23;20007;-68
2021/11/28 01:08:19;;;;;;;0.68;0.35;;;19.10;54.00;;;;;;6214387;23;20075;-68
2021/11/28 01:10:46;;;;;;;1.08;0.60;;;19.20;54.10;;;;;;6163722;23;20011;-68
2021/11/28 01:13:13;;;;;;;0.93;0.40;;;19.20;54.10;;;;;;6188261;23;20336;-68
2021/11/28 01:15:38;;;;;;;0.93;0.50;;;19.20;54.10;;;;;;6188099;23;20028;-68
2021/11/28 01:18:04;;;;;;;0.82;0.30;;;19.10;54.00;;;;;;6214513;23;20333;-68
2021/11/28 01:20:29;;;;;;;0.43;0.25;;;19.10;54.00;;;;;;6188006;23;20001;-68
2021/11/28 01:22:55;;;;;;;0.52;0.40;;;19.10;54.10;;;;;;6214107;23;20432;-68
2021/11/28 01:25:21;;;;;;;0.40;0.40;;;19.20;54.10;;;;;;6161901;23;19997;-68
2021/11/28 01:27:47;;;;;;;0.75;0.40;;;19.20;54.10;;;;;;6213145;23;20056;-68
2021/11/28 01:30:12;;;;;;;0.60;0.40;;;19.10;54.10;;;;;;6136766;23;20008;-68
2021/11/28 01:32:38;;;;;;;0.30;0.20;;;19.10;54.00;;;;;;6186754;23;20007;-68
2021/11/28 01:35:08;;;;;;;0.60;0.32;;;19.10;54.10;;;;;;6186776;23;20392;-67
2021/11/28 01:37:34;;;;;;;0.73;0.40;;;19.20;54.10;;;;;;6188376;23;20084;-68
2021/11/28 01:40:05;;;;;;;0.40;0.22;;;19.10;54.10;;;;;;6188645;23;20005;-68
2021/11/28 01:42:41;;;;;;;0.40;0.25;;;19.20;54.10;;;;;;6188624;23;20003;-68
2021/11/28 01:45:09;;;;;;;0.50;0.30;;;19.10;54.10;;;;;;6162961;23;20344;-68
2021/11/28 01:47:34;;;;;;;0.45;0.20;;;19.10;54.10;;;;;;6215079;23;20028;-67
2021/11/28 01:50:00;;;;;;;1.30;0.40;;;19.10;54.20;;;;;;6215009;23;20387;-67
2021/11/28 01:52:26;;;;;;;0.68;0.40;;;19.10;54.10;;;;;;6214653;23;20004;-68
2021/11/28 01:54:51;;;;;;;0.40;0.40;;;19.10;54.10;;;;;;6214994;23;20055;-68
2021/11/28 01:57:17;;;;;;;0.82;0.40;;;19.10;54.10;;;;;;6214696;23;20007;-68
2021/11/28 01:59:43;;;;;;;1.08;0.30;;;19.10;54.20;;;;;;6214475;23;20023;-68
2021/11/28 02:02:08;;;;;;;0.85;0.55;;;19.10;54.10;;;;;;6163485;23;20004;-68
2021/11/28 02:04:34;;;;;;;0.95;0.50;;;19.10;54.20;;;;;;6163732;23;20432;-67
2021/11/28 02:07:00;;;;;;;0.68;0.30;;;19.10;54.20;;;;;;6163543;23;20001;-68
2021/11/28 02:09:25;;;;;;;0.30;0.30;;;19.10;54.20;;;;;;6163481;23;20420;-67
2021/11/28 02:11:51;;;;;;;0.57;0.47;;;19.10;54.10;;;;;;6214856;23;20075;-68
2021/11/28 02:14:16;;;;;;;1.52;0.40;;;19.10;54.20;;;;;;6214672;23;20087;-68
2021/11/28 02:16:42;;;;;;;0.30;0.22;;;19.10;54.20;;;;;;6214899;23;20001;-68
2021/11/28 02:19:08;;;;;;;0.55;0.28;;;19.10;54.20;;;;;;6188186;23;20051;-68
2021/11/28 02:21:33;;;;;;;0.45;0.35;;;19.10;54.20;;;;;;6187848;23;20004;-68
2021/11/28 02:23:59;;;;;;;0.75;0.38;;;19.10;54.40;;;;;;6214717;23;20024;-68
2021/11/28 02:26:25;;;;;;;1.02;0.30;;;19.10;54.40;;;;;;6214307;23;20001;-68
2021/11/28 02:28:51;;;;;;;1.02;0.30;;;19.10;54.30;;;;;;6163390;23;20013;-68
2021/11/28 02:31:16;;;;;;;1.23;0.47;;;19.10;54.20;;;;;;6214702;23;20015;-68
2021/11/28 02:33:42;;;;;;;0.90;0.50;;;19.10;54.20;;;;;;6188355;23;20031;-68
2021/11/28 02:36:08;;;;;;;0.73;0.20;;;19.10;54.30;;;;;;6163468;23;20005;-68
2021/11/28 02:38:34;;;;;;;1.55;0.50;;;19.10;54.30;;;;;;6188042;23;20035;-68
2021/11/28 02:41:00;;;;;;;0.40;0.40;;;19.10;54.30;;;;;;6214830;23;19997;-68
2021/11/28 02:43:27;;;;;;;0.38;0.30;;;19.10;54.30;;;;;;6163388;23;20008;-67
2021/11/28 02:45:53;;;;;;;1.35;0.20;;;19.10;54.30;;;;;;6188614;23;20000;-68
2021/11/28 02:48:19;;;;;;;0.77;0.30;;;19.10;54.30;;;;;;6213287;23;20015;-68
2021/11/28 02:50:45;;;;;;;0.30;0.25;;;19.10;54.30;;;;;;6213663;23;20012;-67
2021/11/28 02:53:11;;;;;;;2.80;0.40;;;19.10;54.30;;;;;;6213395;23;20005;-67
2021/11/28 02:55:47;;;;;;;0.50;0.30;;;19.10;54.30;;;;;;6213601;23;20011;-68
2021/11/28 02:58:14;;;;;;;0.30;0.30;;;19.10;54.30;;;;;;6186600;23;20347;-68
2021/11/28 03:00:42;;;;;;;2.85;0.30;;;19.10;54.30;;;;;;6187381;23;20050;-68
2021/11/28 03:03:08;;;;;;;1.10;0.30;;;19.10;54.30;;;;;;6213960;23;20001;-68
2021/11/28 03:05:34;;;;;;;0.90;0.40;;;19.10;54.30;;;;;;6213078;23;20001;-67
2021/11/28 03:07:59;;;;;;;0.68;0.60;;;19.10;54.30;;;;;;6214137;23;20127;-68
2021/11/28 03:10:32;;;;;;;0.70;0.47;;;19.10;54.30;;;;;;6213925;23;20452;-67
2021/11/28 03:12:58;;;;;;;0.95;0.50;;;19.10;54.40;;;;;;6187407;23;20054;-67
2021/11/28 03:15:23;;;;;;;0.43;0.32;;;19.10;54.40;;;;;;6214124;23;20000;-68
2021/11/28 03:17:49;;;;;;;1.10;0.40;;;19.10;54.40;;;;;;6187776;23;20483;-68
2021/11/28 03:20:15;;;;;;;1.38;0.40;;;19.10;54.40;;;;;;6187212;23;20000;-68
2021/11/28 03:22:46;;;;;;;2.33;0.52;;;19.10;54.40;;;;;;6185639;23;19997;-68
2021/11/28 03:25:12;;;;;;;1.15;0.47;;;19.10;54.40;;;;;;6212386;23;20001;-68
2021/11/28 03:27:38;;;;;;;0.85;0.60;;;19.10;54.40;;;;;;6211940;23;20017;-68
2021/11/28 03:30:04;;;;;;;1.95;0.68;;;19.10;54.40;;;;;;6213055;23;20076;-68
2021/11/28 03:32:29;;;;;;;1.75;0.65;;;19.10;54.40;;;;;;6186135;23;20055;-68
2021/11/28 03:34:55;;;;;;;1.35;0.50;;;19.10;54.40;;;;;;6213561;23;20005;-68
2021/11/28 03:37:21;;;;;;;1.67;0.47;;;19.10;54.40;;;;;;6215060;23;20009;-68
2021/11/28 03:39:46;;;;;;;1.55;0.60;;;19.10;54.40;;;;;;6215276;23;20360;-68
2021/11/28 03:42:13;;;;;;;1.02;0.52;;;19.10;54.40;;;;;;6214930;23;20004;-67
2021/11/28 03:44:38;;;;;;;1.20;0.40;;;19.10;54.40;;;;;;6163747;23;19996;-68
2021/11/28 03:47:04;;;;;;;0.40;0.30;;;19.10;54.40;;;;;;6213930;23;20054;-68
2021/11/28 03:49:30;;;;;;;3.20;0.60;;;19.10;54.50;;;;;;6215212;23;19996;-68
2021/11/28 03:51:57;;;;;;;0.52;0.30;;;19.10;54.40;;;;;;6188593;23;19997;-68
2021/11/28 03:54:23;;;;;;;1.02;0.40;;;19.00;54.40;;;;;;6215059;23;20027;-68
2021/11/28 03:56:48;;;;;;;1.10;0.40;;;19.10;54.50;;;;;;6214878;23;20001;-68
2021/11/28 03:59:15;;;;;;;1.75;0.90;;;19.00;54.40;;;;;;6163458;23;20001;-68
2021/11/28 04:01:41;;;;;;;1.40;0.50;;;19.00;54.40;;;;;;6188683;23;20007;-68
2021/11/28 04:04:06;;;;;;;1.08;0.40;;;19.00;54.40;;;;;;6188779;23;20001;-68
2021/11/28 04:06:32;;;;;;;2.30;0.70;;;19.00;54.40;;;;;;6188519;23;20000;-68
2021/11/28 04:08:58;;;;;;;0.85;0.40;;;19.00;54.40;;;;;;6215019;23;20005;-68
2021/11/28 04:11:23;;;;;;;0.90;0.50;;;19.00;54.40;;;;;;6163402;23;20383;-67
2021/11/28 04:13:49;;;;;;;2.13;0.57;;;19.00;54.50;;;;;;6215048;23;20010;-68
2021/11/28 04:16:14;;;;;;;0.60;0.35;;;19.00;54.40;;;;;;6215029;23;20495;-68
2021/11/28 04:18:40;;;;;;;0.82;0.30;;;19.00;54.40;;;;;;6214801;23;20001;-68
2021/11/28 04:21:06;;;;;;;0.75;0.38;;;19.00;54.40;;;;;;6163846;23;20000;-67
2021/11/28 04:23:31;;;;;;;1.15;0.52;;;19.00;54.40;;;;;;6214757;23;20453;-67
2021/11/28 04:25:57;;;;;;;1.23;0.55;;;19.00;54.40;;;;;;6214477;23;20001;-68
2021/11/28 04:28:23;;;;;;;0.77;0.35;;;19.00;54.50;;;;;;6187967;23;20016;-67
2021/11/28 04:30:48;;;;;;;1.95;0.65;;;19.00;54.40;;;;;;6214916;23;20084;-68
2021/11/28 04:33:15;;;;;;;1.17;0.50;;;19.00;54.40;;;;;;6214795;23;20440;-67
2021/11/28 04:35:44;;;;;;;0.50;0.40;;;19.00;54.50;;;;;;6215000;23;20008;-67
2021/11/28 04:38:10;;;;;;;0.90;0.32;;;19.00;54.50;;;;;;6188219;23;20074;-67
2021/11/28 04:40:35;;;;;;;0.80;0.50;;;19.00;54.50;;;;;;6187769;23;20005;-67
2021/11/28 04:43:01;;;;;;;1.35;0.30;;;19.00;54.40;;;;;;6214769;23;20012;-68
2021/11/28 04:45:27;;;;;;;1.65;0.30;;;19.00;54.50;;;;;;6215038;23;20103;-68
2021/11/28 04:47:52;;;;;;;0.65;0.40;;;19.00;54.50;;;;;;6188235;23;20439;-68
2021/11/28 04:50:18;;;;;;;1.13;0.38;;;19.00;54.60;;;;;;6188339;23;20478;-68
2021/11/28 04:52:44;;;;;;;0.57;0.40;;;19.00;54.50;;;;;;6214518;23;20338;-68
2021/11/28 04:55:10;;;;;;;0.30;0.20;;;19.00;54.40;;;;;;6163090;23;20332;-68
2021/11/28 04:57:36;;;;;;;0.65;0.45;;;19.00;54.50;;;;;;6188106;23;20075;-68
2021/11/28 05:00:04;;;;;;;1.15;0.40;;;19.00;54.50;;;;;;6163470;23;20538;-68
2021/11/28 05:02:29;;;;;;;1.00;0.45;;;19.00;54.60;;;;;;6214764;23;20001;-68
2021/11/28 05:04:55;;;;;;;1.85;0.40;;;19.00;54.50;;;;;;6214462;23;19997;-68
2021/11/28 05:07:21;;;;;;;0.85;0.60;;;19.00;54.50;;;;;;6163148;23;20001;-68
2021/11/28 05:09:46;;;;;;;0.35;0.30;;;19.00;54.50;;;;;;6213768;23;20000;-68
2021/11/28 05:12:12;;;;;;;0.65;0.30;;;19.00;54.50;;;;;;6188131;23;19997;-68
2021/11/28 05:14:37;;;;;;;0.70;0.30;;;19.00;54.60;;;;;;6188015;23;20004;-68
2021/11/28 05:17:03;;;;;;;0.60;0.38;;;19.00;54.50;;;;;;6214438;23;19993;-68
2021/11/28 05:19:29;;;;;;;1.80;0.30;;;19.00;54.60;;;;;;6188060;23;20001;-68
2021/11/28 05:21:54;;;;;;;0.50;0.30;;;19.00;54.50;;;;;;6214396;23;20437;-68
2021/11/28 05:24:20;;;;;;;1.13;0.30;;;19.00;54.50;;;;;;6214139;23;20080;-68
2021/11/28 05:26:47;;;;;;;0.80;0.45;;;19.00;54.60;;;;;;6214266;23;20062;-67
2021/11/28 05:29:14;;;;;;;1.55;0.45;;;19.00;54.60;;;;;;6214296;23;20005;-67
2021/11/28 05:31:40;;;;;;;1.20;0.77;;;18.90;54.50;;;;;;6188138;23;20498;-68
2021/11/28 05:34:05;;;;;;;1.05;0.30;;;19.00;54.60;;;;;;6188075;23;20000;-68
2021/11/28 05:36:31;;;;;;;1.45;0.35;;;19.00;54.60;;;;;;6213906;23;20087;-68
2021/11/28 05:38:56;;;;;;;1.02;0.40;;;18.90;54.60;;;;;;6214194;23;20012;-68
2021/11/28 05:41:22;;;;;;;0.20;0.20;;;19.00;54.60;;;;;;6214420;23;20088;-68
2021/11/28 05:43:49;;;;;;;1.10;0.30;;;19.00;54.60;;;;;;6214180;23;20159;-68
2021/11/28 05:46:15;;;;;;;1.63;0.40;;;19.00;54.60;;;;;;6188475;23;20432;-68
2021/11/28 05:48:41;;;;;;;1.92;0.30;;;19.00;54.60;;;;;;6214312;23;20079;-68
2021/11/28 05:51:06;;;;;;;0.30;0.30;;;19.00;54.60;;;;;;6187536;23;20007;-68
2021/11/28 05:53:32;;;;;;;1.30;0.52;;;19.00;54.60;;;;;;6214216;23;20000;-68
2021/11/28 05:55:58;;;;;;;0.50;0.30;;;19.00;54.60;;;;;;6187999;23;20004;-68
2021/11/28 05:58:23;;;;;;;0.32;0.30;;;19.00;54.60;;;;;;6187774;23;20047;-68
2021/11/28 06:00:49;;;;;;;0.75;0.32;;;19.00;54.60;;;;;;6214280;23;20001;-68
2021/11/28 06:03:14;;;;;;;1.23;0.50;;;19.00;54.70;;;;;;6214224;23;20054;-68
2021/11/28 06:05:42;;;;;;;2.45;0.40;;;19.00;54.70;;;;;;6187224;23;20028;-68
2021/11/28 06:08:08;;;;;;;0.40;0.28;;;19.00;54.70;;;;;;6163045;23;20348;-68
2021/11/28 06:10:33;;;;;;;1.38;0.30;;;19.00;54.60;;;;;;6214125;23;20001;-68
2021/11/28 06:12:59;;;;;;;0.47;0.30;;;19.00;54.70;;;;;;6214170;23;20008;-68
2021/11/28 06:15:24;;;;;;;0.47;0.25;;;18.90;54.70;;;;;;6214329;23;20004;-68
2021/11/28 06:17:50;;;;;;;0.30;0.30;;;19.00;54.70;;;;;;6213895;23;20340;-68
2021/11/28 06:20:16;;;;;;;0.50;0.30;;;19.00;54.70;;;;;;6187452;23;20044;-68
2021/11/28 06:22:41;;;;;;;1.05;0.30;;;19.00;54.70;;;;;;6214895;23;20011;-68
2021/11/28 06:25:07;;;;;;;0.60;0.40;;;18.90;54.70;;;;;;6189573;23;20005;-68
2021/11/28 06:27:33;;;;;;;0.75;0.30;;;19.00;54.70;;;;;;6215810;23;20021;-68
2021/11/28 06:29:59;;;;;;;0.43;0.30;;;19.00;54.80;;;;;;6189536;23;20011;-68
2021/11/28 06:32:24;;;;;;;0.30;0.30;;;19.00;54.80;;;;;;6164515;23;20012;-68
2021/11/28 06:34:50;;;;;;;0.30;0.20;;;19.00;54.70;;;;;;6188971;23;20060;-68
2021/11/28 06:37:16;;;;;;;0.45;0.30;;;19.00;54.70;;;;;;6215699;23;20080;-68
2021/11/28 06:39:41;;;;;;;1.00;0.30;;;19.00;54.80;;;;;;6215678;23;20076;-68
2021/11/28 06:42:07;;;;;;;0.68;0.38;;;19.00;54.80;;;;;;6189694;23;20024;-68
2021/11/28 06:44:33;;;;;;;0.45;0.35;;;19.00;54.80;;;;;;6189250;23;20004;-68
2021/11/28 06:46:58;;;;;;;0.50;0.20;;;19.00;54.80;;;;;;6164504;23;20376;-68
2021/11/28 06:49:26;;;;;;;0.73;0.50;;;19.00;54.80;;;;;;6215372;23;20000;-68
2021/11/28 06:51:53;;;;;;;0.40;0.30;;;19.00;54.80;;;;;;6165369;23;20344;-68
2021/11/28 06:54:19;;;;;;;0.70;0.30;;;19.00;54.90;;;;;;6215746;23;20001;-68
2021/11/28 06:56:44;;;;;;;0.30;0.20;;;19.00;54.90;;;;;;6215676;23;20011;-68
2021/11/28 06:59:10;;;;;;;0.75;0.60;;;18.90;54.80;;;;;;6215546;23;20009;-68
2021/11/28 07:01:36;;;;;;;0.50;0.35;;;19.00;54.90;;;;;;6189084;23;20062;-68
2021/11/28 07:04:01;;;;;;;0.77;0.30;;;19.00;54.90;;;;;;6188890;23;20004;-68
2021/11/28 07:06:27;;;;;;;0.60;0.30;;;19.00;54.90;;;;;;6189133;23;20024;-68
2021/11/28 07:08:53;;;;;;;0.60;0.28;;;19.00;54.90;;;;;;6215351;23;20001;-68
2021/11/28 07:11:18;;;;;;;0.90;0.22;;;19.00;54.90;;;;;;6215625;23;20059;-68
2021/11/28 07:13:44;;;;;;;0.65;0.40;;;19.00;54.90;;;;;;6163958;23;20115;-68
2021/11/28 07:16:11;;;;;;;2.10;0.20;;;19.00;54.90;;;;;;6215663;23;20007;-68
2021/11/28 07:18:39;;;;;;;0.28;0.22;;;19.00;54.90;;;;;;6214987;23;20511;-68
2021/11/28 07:21:05;;;;;;;0.60;0.30;;;19.00;54.90;;;;;;6215555;23;20003;-68
2021/11/28 07:23:30;;;;;;;0.43;0.30;;;19.00;54.90;;;;;;6189065;23;20008;-68
2021/11/28 07:25:56;;;;;;;1.00;0.30;;;19.00;54.90;;;;;;6187560;23;20075;-68
2021/11/28 07:28:21;;;;;;;0.30;0.30;;;19.00;54.90;;;;;;6214153;23;20054;-68
2021/11/28 07:30:50;;;;;;;0.50;0.30;;;19.00;54.90;;;;;;6187675;23;20015;-68
2021/11/28 07:33:16;;;;;;;0.50;0.20;;;19.00;54.90;;;;;;6188005;23;20058;-68
2021/11/28 07:35:41;;;;;;;0.20;0.20;;;19.00;54.90;;;;;;6187740;23;20012;-68
2021/11/28 07:38:07;;;;;;;0.20;0.20;;;19.00;55.00;;;;;;6187802;23;20018;-68
2021/11/28 07:40:33;;;;;;;0.73;0.28;;;19.00;55.00;;;;;;6214761;23;20039;-68
2021/11/28 07:42:58;;;;;;;0.30;0.20;;;19.00;54.90;;;;;;6213066;23;20007;-68
2021/11/28 07:45:27;;;;;;;0.32;0.15;;;19.00;54.90;;;;;;6213900;23;19997;-68
2021/11/28 07:47:52;;;;;;;0.70;0.22;;;19.00;54.90;;;;;;6213452;23;20008;-68
2021/11/28 07:50:18;;;;;;;0.75;0.22;;;19.00;54.90;;;;;;6187434;23;20005;-68
2021/11/28 07:52:44;;;;;;;0.60;0.30;;;19.00;54.90;;;;;;6213791;23;20008;-68
2021/11/28 07:55:09;;;;;;;0.77;0.52;;;19.00;54.90;;;;;;6213897;23;20008;-68
2021/11/28 07:57:35;;;;;;;0.30;0.20;;;19.00;55.00;;;;;;6187252;23;20008;-68
2021/11/28 08:00:01;;;;;;;0.47;0.25;;;19.00;55.00;;;;;;6187306;23;20424;-68
2021/11/28 08:02:27;;;;;;;0.22;0.20;;;19.00;54.90;;;;;;6213576;23;20079;-68
2021/11/28 08:04:53;;;;;;;0.60;0.40;;;19.00;55.00;;;;;;6213596;23;20024;-68
2021/11/28 08:07:18;;;;;;;0.40;0.30;;;19.00;54.90;;;;;;6213877;23;20496;-68
2021/11/28 08:09:44;;;;;;;1.27;0.32;;;19.00;55.00;;;;;;6187023;23;20000;-68
2021/11/28 08:12:10;;;;;;;0.70;0.38;;;19.00;55.00;;;;;;6162526;23;20004;-68
2021/11/28 08:14:36;;;;;;;0.38;0.30;;;19.00;55.00;;;;;;6187085;23;20000;-67
2021/11/28 08:17:01;;;;;;;0.93;0.28;;;19.00;55.00;;;;;;6213103;23;20001;-67
2021/11/28 08:19:27;;;;;;;0.65;0.30;;;19.00;55.00;;;;;;6213660;23;20083;-68
2021/11/28 08:21:53;;;;;;;0.32;0.20;;;19.00;55.00;;;;;;6186931;23;20003;-67
2021/11/28 08:24:19;;;;;;;1.73;0.20;;;19.00;54.90;;;;;;6213591;23;20444;-67
2021/11/28 08:26:45;;;;;;;1.38;0.20;;;19.00;54.90;;;;;;6186820;23;20062;-68
2021/11/28 08:29:10;;;;;;;0.20;0.20;;;19.00;54.90;;;;;;6187108;23;20005;-67
2021/11/28 08:31:36;;;;;;;0.40;0.20;;;19.00;54.90;;;;;;6213077;23;20005;-68
2021/11/28 08:34:02;;;;;;;0.30;0.25;;;19.00;54.90;;;;;;6213372;23;20040;-67
2021/11/28 08:36:27;;;;;;;0.95;0.25;;;19.00;55.00;;;;;;6162268;23;20007;-67
2021/11/28 08:38:53;;;;;;;0.52;0.10;;;19.00;54.90;;;;;;6213161;23;20012;-67
2021/11/28 08:41:22;;;;;;;0.17;0.10;;;19.00;54.90;;;;;;6213600;23;20051;-68
2021/11/28 08:43:49;;;;;;;1.10;0.10;;;19.00;54.90;;;;;;6187750;23;20004;-68
2021/11/28 08:46:15;;;;;;;0.30;0.22;;;19.00;54.90;;;;;;6186336;23;20452;-67
2021/11/28 08:48:41;;;;;;;0.20;0.13;;;19.00;54.90;;;;;;6186713;23;20047;-67
2021/11/28 08:51:07;;;;;;;0.20;0.15;;;19.00;54.90;;;;;;6186342;23;20004;-68
2021/11/28 08:53:32;;;;;;;0.22;0.20;;;19.00;54.90;;;;;;6186753;23;20008;-68
2021/11/28 08:55:58;;;;;;;1.20;0.35;;;19.00;54.90;;;;;;6186165;23;20036;-67
2021/11/28 08:58:24;;;;;;;0.25;0.20;;;19.00;54.80;;;;;;6213151;23;20142;-69
2021/11/28 09:00:49;;;;;;;1.73;0.40;;;19.00;54.80;;;;;;6186728;23;20007;-69
2021/11/28 09:03:15;;;;;;;6.65;0.73;;;19.00;54.80;;;;;;6188180;23;20001;-69
2021/11/28 09:05:41;;;;;;;4.07;0.73;;;19.10;54.90;;;;;;6163297;23;20001;-69
2021/11/28 09:08:06;;;;;;;6.25;1.33;;;19.10;55.00;;;;;;6212283;23;20329;-69
2021/11/28 09:10:32;;;;;;;3.88;1.17;;;19.10;54.90;;;;;;6186617;23;20005;-69
2021/11/28 09:12:58;;;;;;;3.58;0.90;;;19.10;54.80;;;;;;6186536;23;20001;-69
2021/11/28 09:15:26;;;;;;;3.92;1.08;;;19.10;54.90;;;;;;6186311;23;20005;-69
2021/11/28 09:17:57;;;;;;;4.53;1.20;;;19.10;54.90;;;;;;6212852;23;20448;-68
2021/11/28 09:20:24;;;;;;;7.88;1.10;;;19.10;54.80;;;;;;6187789;23;20072;-68
2021/11/28 09:25:17;;;;;;;3.28;0.98;;;19.10;54.70;;;;;;6186392;23;20005;-67
2021/11/28 09:27:43;;;;;;;2.28;0.95;;;19.10;54.70;;;;;;6213512;23;20460;-68
2021/11/28 09:30:09;;;;;;;3.72;1.10;;;19.10;54.70;;;;;;6185805;23;20001;-68
2021/11/28 09:32:35;;;;;;;1.98;1.00;;;19.10;54.70;;;;;;6162182;23;20447;-68
2021/11/28 09:35:00;;;;;;;3.08;0.80;;;19.10;55.60;;;;;;6186627;23;20001;-68
2021/11/28 09:37:26;;;;;;;2.25;0.80;;;19.10;54.60;;;;;;6186866;23;20008;-68
2021/11/28 09:39:52;;;;;;;3.95;1.05;;;19.10;54.60;;;;;;6186685;23;20423;-68
2021/11/28 09:42:22;;;;;;;3.55;0.98;;;19.10;54.60;;;;;;6213201;23;20004;-68
2021/11/28 09:44:47;;;;;;;3.00;0.90;;;19.10;54.60;;;;;;6186766;23;20047;-68
2021/11/28 09:47:13;;;;;;;4.10;1.00;;;19.10;54.60;;;;;;6161866;23;20008;-68
2021/11/28 09:49:41;;;;;;;1.63;0.60;;;19.10;54.60;;;;;;6188358;23;20011;-68
2021/11/28 09:52:09;;;;;;;2.60;0.55;;;19.10;54.60;;;;;;6214764;23;20132;-68
2021/11/28 09:54:41;;;;;;;4.43;1.10;;;19.10;54.60;;;;;;6163750;23;20028;-68
2021/11/28 09:57:10;;;;;;;3.42;1.10;;;19.10;54.50;;;;;;6215377;23;20316;-68
2021/11/28 09:59:36;;;;;;;1.33;0.60;;;19.10;54.60;;;;;;6189572;23;20016;-68
2021/11/28 10:02:02;;;;;;;2.65;0.82;;;19.10;54.60;;;;;;6164983;23;20320;-68
2021/11/28 10:04:27;;;;;;;2.13;0.68;;;19.10;54.60;;;;;;6190267;23;20001;-68
2021/11/28 10:06:53;;;;;;;2.03;0.75;;;19.20;54.70;;;;;;6165509;23;20436;-68
2021/11/28 10:09:19;;;;;;;2.15;0.80;;;19.20;54.60;;;;;;6165236;23;20321;-68
2021/11/28 10:12:16;;;;;;;9.65;3.20;;;19.20;54.60;;;;;;6216415;23;20008;-68
2021/11/28 10:14:46;;;;;;;20.52;6.75;;;19.20;54.60;;;;;;6216692;23;20011;-68
2021/11/28 10:17:12;;;;;;;26.38;8.90;;;19.20;54.70;;;;;;6216424;23;20019;-68
2021/11/28 10:19:37;;;;;;;27.75;10.07;;;19.20;54.70;;;;;;6189837;23;20005;-68
2021/11/28 10:22:04;;;;;;;28.38;9.68;;;19.20;54.60;;;;;;6216920;23;19996;-68
2021/11/28 10:24:30;;;;;;;19.95;9.20;;;19.20;54.70;;;;;;6165371;23;20504;-68
2021/11/28 10:27:08;;;;;;;23.95;9.85;;;19.20;54.80;;;;;;6140261;23;20039;-68
2021/11/28 10:29:38;;;;;;;25.33;9.18;;;19.30;54.80;;;;;;6216761;23;20000;-68
2021/11/28 10:32:05;;;;;;;22.45;8.65;;;19.30;54.80;;;;;;6165379;23;20067;-68
2021/11/28 10:34:39;;;;;;;21.30;9.02;;;19.30;54.90;;;;;;6165369;23;20015;-68
2021/11/28 10:37:04;;;;;;;24.48;9.13;;;19.30;54.90;;;;;;6216359;23;20444;-68
2021/11/28 10:39:35;;;;;;;21.13;8.10;;;19.30;54.80;;;;;;6216497;23;20008;-68
2021/11/28 10:42:01;;;;;;;19.38;7.60;;;19.30;54.90;;;;;;6190504;23;20510;-68
2021/11/28 10:44:26;;;;;;;18.90;7.45;;;19.40;54.90;;;;;;6189910;23;20001;-68
2021/11/28 10:46:57;;;;;;;19.48;7.25;;;19.40;54.90;;;;;;6190011;23;20005;-69
2021/11/28 10:49:24;;;;;;;16.75;6.55;;;19.40;54.90;;;;;;6216468;23;20005;-68
2021/11/28 10:51:52;;;;;;;16.35;6.50;;;19.40;54.90;;;;;;6165970;23;20005;-68
2021/11/28 10:54:22;;;;;;;14.88;6.05;;;19.40;55.00;;;;;;6189764;23;20532;-68
2021/11/28 10:56:48;;;;;;;14.95;6.15;;;19.40;54.90;;;;;;6189704;23;20460;-68
2021/11/28 10:59:19;;;;;;;12.68;5.60;;;19.40;55.00;;;;;;6165615;23;20000;-68
2021/11/28 11:01:45;;;;;;;12.85;5.65;;;19.40;55.00;;;;;;6190160;23;20031;-68
2021/11/28 11:04:18;;;;;;;11.77;5.32;;;19.40;55.00;;;;;;6165272;23;20052;-71
2021/11/28 11:06:44;;;;;;;13.57;4.80;;;19.40;55.00;;;;;;6162904;23;20072;-69
2021/11/28 11:09:21;;;;;;;12.43;5.05;;;19.40;55.10;;;;;;6187874;23;20028;-69
2021/11/28 11:11:47;;;;;;;11.77;4.90;;;19.40;55.00;;;;;;6189013;23;20004;-67
2021/11/28 11:14:14;;;;;;;11.73;4.32;;;19.40;55.10;;;;;;6188980;23;20005;-68
2021/11/28 11:16:45;;;;;;;11.32;4.10;;;19.40;55.00;;;;;;6165172;23;20424;-67
2021/11/28 11:19:35;;;;;;;10.07;4.00;;;19.40;55.00;;;;;;6189251;23;20009;-68
2021/11/28 11:22:19;;;;;;;8.50;3.72;;;19.40;54.90;;;;;;6215660;23;20004;-70
2021/11/28 11:24:53;;;;;;;9.68;3.50;;;19.30;55.10;;;;;;6215349;23;20000;-69
2021/11/28 11:27:20;;;;;;;8.05;3.55;;;19.40;55.10;;;;;;6165222;23;20538;-68
2021/11/28 11:29:51;;;;;;;9.38;3.00;;;19.30;55.10;;;;;;6215636;23;20003;-69
2021/11/28 11:32:21;;;;;;;10.68;3.60;;;19.30;55.10;;;;;;6164670;23;20004;-68
2021/11/28 11:34:52;;;;;;;10.05;2.85;;;19.30;55.10;;;;;;6165063;23;20086;-69
2021/11/28 11:37:18;;;;;;;11.48;3.55;;;19.40;55.20;;;;;;6188424;23;20068;-68
2021/11/28 11:39:45;;;;;;;5.18;2.53;;;19.30;55.10;;;;;;6163838;23;20450;-69
2021/11/28 11:42:13;;;;;;;6.18;2.78;;;19.40;55.10;;;;;;6189124;23;20016;-68
2021/11/28 11:44:39;;;;;;;5.00;2.40;;;19.40;56.10;;;;;;6165087;23;20001;-68
2021/11/28 11:47:04;;;;;;;8.63;3.10;;;19.40;55.10;;;;;;6188683;23;20004;-68
2021/11/28 11:49:31;;;;;;;7.50;2.40;;;19.40;55.20;;;;;;6188743;23;20005;-70
2021/11/28 11:51:57;;;;;;;8.48;2.85;;;19.40;56.10;;;;;;6215674;23;19997;-68
2021/11/28 11:54:28;;;;;;;6.03;2.75;;;19.40;55.10;;;;;;6163427;23;20027;-68
2021/11/28 11:57:00;;;;;;;4.82;2.00;;;19.40;55.00;;;;;;6164184;23;20068;-69
2021/11/28 11:59:58;;;;;;;7.57;2.40;;;19.40;55.10;;;;;;6215008;23;20332;-69
2021/11/28 12:02:36;;;;;;;6.32;2.50;;;19.40;55.00;;;;;;6214787;23;20695;-69
2021/11/28 12:05:23;;;;;;;5.85;2.47;;;19.40;55.10;;;;;;6215217;23;19993;-69
2021/11/28 12:07:53;;;;;;;3.28;1.85;;;19.40;55.20;;;;;;6182217;23;20012;-69
2021/11/28 12:10:40;;;;;;;3.40;1.90;;;19.40;55.20;;;;;;6164177;23;20005;-69
2021/11/28 12:13:14;;;;;;;5.72;2.10;;;19.40;55.20;;;;;;6214745;23;20020;-69
2021/11/28 12:15:49;;;;;;;5.63;1.92;;;19.40;55.20;;;;;;6163545;23;20028;-68
2021/11/28 12:18:34;;;;;;;2.45;1.50;;;19.40;55.20;;;;;;6166052;23;20008;-69
2021/11/28 12:21:12;;;;;;;6.28;1.92;;;19.50;55.10;;;;;;6214822;23;20075;-71
2021/11/28 12:24:03;;;;;;;4.03;1.95;;;19.40;55.20;;;;;;6188038;23;19996;-69
2021/11/28 12:26:32;;;;;;;5.07;2.20;;;19.50;55.20;;;;;;6214429;23;20095;-68
2021/11/28 12:29:11;;;;;;;4.07;1.88;;;19.40;55.20;;;;;;6214380;23;20008;-69
2021/11/28 12:31:41;;;;;;;3.60;1.80;;;19.40;55.20;;;;;;6214204;23;20324;-68
2021/11/28 12:34:31;;;;;;;3.00;1.55;;;19.40;55.20;;;;;;6140295;23;20063;-67
2021/11/28 12:36:57;;;;;;;4.15;1.67;;;19.50;55.20;;;;;;6193070;23;20024;-69
2021/11/28 12:39:24;;;;;;;5.40;1.50;;;19.40;55.20;;;;;;6163795;23;20530;-70
2021/11/28 12:41:58;;;;;;;3.00;1.50;;;19.40;55.20;;;;;;6214827;23;20023;-70
2021/11/28 12:44:26;;;;;;;3.55;1.70;;;19.50;55.20;;;;;;6214471;23;19997;-72
2021/11/28 12:46:59;;;;;;;4.88;1.88;;;19.50;55.20;;;;;;6139610;23;20324;-71
2021/11/28 12:49:29;;;;;;;1.90;1.55;;;19.50;55.20;;;;;;6188980;23;20001;-68
2021/11/28 12:52:17;;;;;;;3.03;1.65;;;19.50;55.20;;;;;;6188257;23;20079;-69
2021/11/28 12:55:02;;;;;;;2.83;1.10;;;19.50;55.20;;;;;;6192918;23;20071;-70
2021/11/28 12:57:48;;;;;;;2.20;1.30;;;19.50;55.20;;;;;;6213945;23;20008;-69